sensor_id;sensor_type;location;lat;lon;timestamp;P1;durP1;ratioP1;P2;durP2;ratioP2
34765;SDS011;20984;43.508;1.504;2023-02-26T00:00:34;8.07;;;7.28;;
34765;SDS011;20984;43.508;1.504;2023-02-26T00:03:00;7.18;;;6.47;;
34765;SDS011;20984;43.508;1.504;2023-02-26T00:05:25;7.28;;;6.57;;
34765;SDS011;20984;43.508;1.504;2023-02-26T00:07:51;7.72;;;6.47;;
34765;SDS011;20984;43.508;1.504;2023-02-26T00:10:17;10.52;;;7.25;;
34765;SDS011;20984;43.508;1.504;2023-02-26T00:12:43;7.97;;;7.18;;
34765;SDS011;20984;43.508;1.504;2023-02-26T00:15:10;7.35;;;6.60;;
34765;SDS011;20984;43.508;1.504;2023-02-26T00:22:45;8.60;;;7.43;;
34765;SDS011;20984;43.508;1.504;2023-02-26T00:25:11;11.55;;;6.70;;
34765;SDS011;20984;43.508;1.504;2023-02-26T00:27:37;13.65;;;6.68;;
34765;SDS011;20984;43.508;1.504;2023-02-26T00:30:04;8.90;;;6.80;;
34765;SDS011;20984;43.508;1.504;2023-02-26T00:32:32;7.95;;;7.15;;
34765;SDS011;20984;43.508;1.504;2023-02-26T00:34:58;7.93;;;7.13;;
34765;SDS011;20984;43.508;1.504;2023-02-26T00:37:33;8.73;;;7.82;;
34765;SDS011;20984;43.508;1.504;2023-02-26T00:42:40;10.15;;;7.57;;
34765;SDS011;20984;43.508;1.504;2023-02-26T00:45:07;8.65;;;7.75;;
34765;SDS011;20984;43.508;1.504;2023-02-26T00:50:51;9.13;;;7.10;;
34765;SDS011;20984;43.508;1.504;2023-02-26T00:53:45;10.25;;;7.68;;
34765;SDS011;20984;43.508;1.504;2023-02-26T00:56:16;8.85;;;7.30;;
34765;SDS011;20984;43.508;1.504;2023-02-26T00:58:41;8.90;;;8.02;;
34765;SDS011;20984;43.508;1.504;2023-02-26T01:01:07;9.75;;;8.13;;
34765;SDS011;20984;43.508;1.504;2023-02-26T01:03:33;9.05;;;7.53;;
34765;SDS011;20984;43.508;1.504;2023-02-26T01:05:59;9.73;;;7.80;;
34765;SDS011;20984;43.508;1.504;2023-02-26T01:08:33;9.80;;;8.23;;
34765;SDS011;20984;43.508;1.504;2023-02-26T01:11:06;9.82;;;7.97;;
34765;SDS011;20984;43.508;1.504;2023-02-26T01:13:32;9.57;;;8.30;;
34765;SDS011;20984;43.508;1.504;2023-02-26T01:16:00;10.23;;;8.70;;
34765;SDS011;20984;43.508;1.504;2023-02-26T01:18:32;10.27;;;8.18;;
34765;SDS011;20984;43.508;1.504;2023-02-26T01:21:07;10.63;;;8.38;;
34765;SDS011;20984;43.508;1.504;2023-02-26T01:23:39;11.10;;;9.00;;
34765;SDS011;20984;43.508;1.504;2023-02-26T01:26:31;10.63;;;8.60;;
34765;SDS011;20984;43.508;1.504;2023-02-26T01:28:56;12.27;;;8.70;;
34765;SDS011;20984;43.508;1.504;2023-02-26T01:33:52;12.75;;;8.80;;
34765;SDS011;20984;43.508;1.504;2023-02-26T01:36:27;11.20;;;8.90;;
34765;SDS011;20984;43.508;1.504;2023-02-26T01:39:02;14.75;;;9.07;;
34765;SDS011;20984;43.508;1.504;2023-02-26T01:41:48;10.13;;;8.43;;
34765;SDS011;20984;43.508;1.504;2023-02-26T01:44:34;11.52;;;9.45;;
34765;SDS011;20984;43.508;1.504;2023-02-26T01:47:12;14.70;;;9.68;;
34765;SDS011;20984;43.508;1.504;2023-02-26T01:50:14;13.73;;;10.73;;
34765;SDS011;20984;43.508;1.504;2023-02-26T01:55:21;13.20;;;10.85;;
34765;SDS011;20984;43.508;1.504;2023-02-26T01:57:50;12.18;;;10.05;;
34765;SDS011;20984;43.508;1.504;2023-02-26T02:00:18;13.90;;;11.15;;
34765;SDS011;20984;43.508;1.504;2023-02-26T02:02:44;13.20;;;10.95;;
34765;SDS011;20984;43.508;1.504;2023-02-26T02:05:18;16.70;;;10.30;;
34765;SDS011;20984;43.508;1.504;2023-02-26T02:07:48;16.65;;;10.93;;
34765;SDS011;20984;43.508;1.504;2023-02-26T02:10:14;16.08;;;11.43;;
34765;SDS011;20984;43.508;1.504;2023-02-26T02:15:44;13.05;;;9.98;;
34765;SDS011;20984;43.508;1.504;2023-02-26T02:31:56;19.05;;;12.02;;
34765;SDS011;20984;43.508;1.504;2023-02-26T02:34:28;17.25;;;12.32;;
34765;SDS011;20984;43.508;1.504;2023-02-26T02:42:33;15.52;;;11.65;;
34765;SDS011;20984;43.508;1.504;2023-02-26T02:45:07;18.20;;;12.23;;
34765;SDS011;20984;43.508;1.504;2023-02-26T02:48:01;19.52;;;13.75;;
34765;SDS011;20984;43.508;1.504;2023-02-26T02:53:43;14.70;;;10.40;;
34765;SDS011;20984;43.508;1.504;2023-02-26T02:56:16;18.65;;;12.38;;
34765;SDS011;20984;43.508;1.504;2023-02-26T02:58:59;15.15;;;11.55;;
34765;SDS011;20984;43.508;1.504;2023-02-26T03:01:36;16.17;;;11.70;;
34765;SDS011;20984;43.508;1.504;2023-02-26T03:04:05;17.75;;;10.98;;
34765;SDS011;20984;43.508;1.504;2023-02-26T03:06:33;15.80;;;11.68;;
34765;SDS011;20984;43.508;1.504;2023-02-26T03:09:00;16.80;;;11.23;;
34765;SDS011;20984;43.508;1.504;2023-02-26T03:11:28;18.65;;;11.48;;
34765;SDS011;20984;43.508;1.504;2023-02-26T03:13:54;17.13;;;11.50;;
34765;SDS011;20984;43.508;1.504;2023-02-26T03:30:42;16.52;;;11.43;;
34765;SDS011;20984;43.508;1.504;2023-02-26T03:33:13;16.33;;;11.38;;
34765;SDS011;20984;43.508;1.504;2023-02-26T03:38:35;14.52;;;10.70;;
34765;SDS011;20984;43.508;1.504;2023-02-26T03:41:13;14.98;;;11.85;;
34765;SDS011;20984;43.508;1.504;2023-02-26T03:44:13;18.90;;;11.20;;
34765;SDS011;20984;43.508;1.504;2023-02-26T03:46:42;13.45;;;11.00;;
34765;SDS011;20984;43.508;1.504;2023-02-26T03:49:23;17.50;;;11.23;;
34765;SDS011;20984;43.508;1.504;2023-02-26T03:51:55;12.75;;;10.15;;
34765;SDS011;20984;43.508;1.504;2023-02-26T03:54:58;15.43;;;10.00;;
34765;SDS011;20984;43.508;1.504;2023-02-26T03:57:22;16.45;;;10.50;;
34765;SDS011;20984;43.508;1.504;2023-02-26T03:59:47;15.75;;;10.07;;
34765;SDS011;20984;43.508;1.504;2023-02-26T04:02:17;15.40;;;10.18;;
34765;SDS011;20984;43.508;1.504;2023-02-26T04:04:53;13.50;;;10.88;;
34765;SDS011;20984;43.508;1.504;2023-02-26T04:07:23;12.00;;;9.93;;
34765;SDS011;20984;43.508;1.504;2023-02-26T04:09:50;16.83;;;10.25;;
34765;SDS011;20984;43.508;1.504;2023-02-26T04:12:23;16.15;;;11.18;;
34765;SDS011;20984;43.508;1.504;2023-02-26T04:14:50;15.77;;;10.02;;
34765;SDS011;20984;43.508;1.504;2023-02-26T04:17:16;18.17;;;10.10;;
34765;SDS011;20984;43.508;1.504;2023-02-26T04:19:42;13.45;;;9.73;;
34765;SDS011;20984;43.508;1.504;2023-02-26T04:22:08;12.18;;;9.70;;
34765;SDS011;20984;43.508;1.504;2023-02-26T04:24:34;12.52;;;10.02;;
34765;SDS011;20984;43.508;1.504;2023-02-26T04:27:00;14.00;;;9.48;;
34765;SDS011;20984;43.508;1.504;2023-02-26T04:29:25;13.02;;;9.75;;
34765;SDS011;20984;43.508;1.504;2023-02-26T04:31:52;12.48;;;8.82;;
34765;SDS011;20984;43.508;1.504;2023-02-26T04:34:18;12.25;;;8.95;;
34765;SDS011;20984;43.508;1.504;2023-02-26T04:36:44;14.05;;;9.38;;
34765;SDS011;20984;43.508;1.504;2023-02-26T04:39:09;12.68;;;8.50;;
34765;SDS011;20984;43.508;1.504;2023-02-26T04:41:36;11.40;;;8.07;;
34765;SDS011;20984;43.508;1.504;2023-02-26T04:44:02;10.05;;;8.20;;
34765;SDS011;20984;43.508;1.504;2023-02-26T04:46:29;12.68;;;9.70;;
34765;SDS011;20984;43.508;1.504;2023-02-26T04:48:55;11.48;;;7.85;;
34765;SDS011;20984;43.508;1.504;2023-02-26T04:51:20;11.23;;;7.38;;
34765;SDS011;20984;43.508;1.504;2023-02-26T04:53:46;10.98;;;7.80;;
34765;SDS011;20984;43.508;1.504;2023-02-26T04:56:12;10.43;;;7.80;;
34765;SDS011;20984;43.508;1.504;2023-02-26T04:58:38;8.68;;;7.80;;
34765;SDS011;20984;43.508;1.504;2023-02-26T05:01:04;8.63;;;7.53;;
34765;SDS011;20984;43.508;1.504;2023-02-26T05:03:30;8.23;;;7.07;;
34765;SDS011;20984;43.508;1.504;2023-02-26T05:05:56;8.70;;;7.30;;
34765;SDS011;20984;43.508;1.504;2023-02-26T05:08:21;9.43;;;7.68;;
34765;SDS011;20984;43.508;1.504;2023-02-26T05:10:49;7.95;;;7.07;;
34765;SDS011;20984;43.508;1.504;2023-02-26T05:13:15;10.13;;;7.20;;
34765;SDS011;20984;43.508;1.504;2023-02-26T05:15:41;10.57;;;8.10;;
34765;SDS011;20984;43.508;1.504;2023-02-26T05:18:07;9.48;;;8.13;;
34765;SDS011;20984;43.508;1.504;2023-02-26T05:20:32;10.35;;;7.18;;
34765;SDS011;20984;43.508;1.504;2023-02-26T05:22:58;9.63;;;7.50;;
34765;SDS011;20984;43.508;1.504;2023-02-26T05:25:24;10.85;;;8.38;;
34765;SDS011;20984;43.508;1.504;2023-02-26T05:27:49;12.80;;;7.20;;
34765;SDS011;20984;43.508;1.504;2023-02-26T05:30:15;9.77;;;7.93;;
34765;SDS011;20984;43.508;1.504;2023-02-26T05:32:41;12.27;;;7.68;;
34765;SDS011;20984;43.508;1.504;2023-02-26T05:35:07;11.38;;;7.07;;
34765;SDS011;20984;43.508;1.504;2023-02-26T05:37:34;10.00;;;7.85;;
34765;SDS011;20984;43.508;1.504;2023-02-26T05:40:00;9.43;;;7.05;;
34765;SDS011;20984;43.508;1.504;2023-02-26T05:42:26;9.05;;;7.45;;
34765;SDS011;20984;43.508;1.504;2023-02-26T05:44:52;8.98;;;8.00;;
34765;SDS011;20984;43.508;1.504;2023-02-26T05:47:17;11.68;;;7.57;;
34765;SDS011;20984;43.508;1.504;2023-02-26T05:49:43;12.00;;;7.78;;
34765;SDS011;20984;43.508;1.504;2023-02-26T05:52:09;8.13;;;7.35;;
34765;SDS011;20984;43.508;1.504;2023-02-26T05:54:34;8.52;;;7.65;;
34765;SDS011;20984;43.508;1.504;2023-02-26T05:57:00;7.68;;;6.93;;
34765;SDS011;20984;43.508;1.504;2023-02-26T05:59:26;9.20;;;6.82;;
34765;SDS011;20984;43.508;1.504;2023-02-26T06:01:51;9.27;;;7.75;;
34765;SDS011;20984;43.508;1.504;2023-02-26T06:04:17;10.20;;;7.70;;
34765;SDS011;20984;43.508;1.504;2023-02-26T06:06:43;10.27;;;7.70;;
34765;SDS011;20984;43.508;1.504;2023-02-26T06:09:08;9.02;;;7.68;;
34765;SDS011;20984;43.508;1.504;2023-02-26T06:11:34;8.18;;;6.53;;
34765;SDS011;20984;43.508;1.504;2023-02-26T06:14:00;7.43;;;6.72;;
34765;SDS011;20984;43.508;1.504;2023-02-26T06:16:26;11.07;;;7.40;;
34765;SDS011;20984;43.508;1.504;2023-02-26T06:18:51;8.07;;;6.65;;
34765;SDS011;20984;43.508;1.504;2023-02-26T06:21:17;8.48;;;7.50;;
34765;SDS011;20984;43.508;1.504;2023-02-26T06:23:43;9.18;;;6.63;;
34765;SDS011;20984;43.508;1.504;2023-02-26T06:26:09;11.02;;;7.28;;
34765;SDS011;20984;43.508;1.504;2023-02-26T06:28:35;7.00;;;6.22;;
34765;SDS011;20984;43.508;1.504;2023-02-26T06:31:00;17.58;;;7.22;;
34765;SDS011;20984;43.508;1.504;2023-02-26T06:33:26;13.40;;;8.02;;
34765;SDS011;20984;43.508;1.504;2023-02-26T06:35:52;7.63;;;6.60;;
34765;SDS011;20984;43.508;1.504;2023-02-26T06:38:18;7.75;;;7.00;;
34765;SDS011;20984;43.508;1.504;2023-02-26T06:40:44;7.13;;;5.95;;
34765;SDS011;20984;43.508;1.504;2023-02-26T06:43:11;8.00;;;6.53;;
34765;SDS011;20984;43.508;1.504;2023-02-26T06:45:37;8.27;;;6.78;;
34765;SDS011;20984;43.508;1.504;2023-02-26T06:48:03;10.15;;;7.40;;
34765;SDS011;20984;43.508;1.504;2023-02-26T06:50:28;12.82;;;7.30;;
34765;SDS011;20984;43.508;1.504;2023-02-26T06:52:55;8.20;;;5.93;;
34765;SDS011;20984;43.508;1.504;2023-02-26T06:55:21;10.05;;;6.80;;
34765;SDS011;20984;43.508;1.504;2023-02-26T06:57:51;11.57;;;6.40;;
34765;SDS011;20984;43.508;1.504;2023-02-26T07:00:20;10.13;;;6.60;;
34765;SDS011;20984;43.508;1.504;2023-02-26T07:02:46;6.68;;;6.05;;
34765;SDS011;20984;43.508;1.504;2023-02-26T07:05:12;7.85;;;6.38;;
34765;SDS011;20984;43.508;1.504;2023-02-26T07:07:38;10.52;;;6.13;;
34765;SDS011;20984;43.508;1.504;2023-02-26T07:10:04;9.63;;;6.13;;
34765;SDS011;20984;43.508;1.504;2023-02-26T07:12:29;11.82;;;6.30;;
34765;SDS011;20984;43.508;1.504;2023-02-26T07:14:55;9.82;;;6.40;;
34765;SDS011;20984;43.508;1.504;2023-02-26T07:17:21;9.27;;;6.40;;
34765;SDS011;20984;43.508;1.504;2023-02-26T07:19:48;9.90;;;6.65;;
34765;SDS011;20984;43.508;1.504;2023-02-26T07:22:15;7.80;;;6.28;;
34765;SDS011;20984;43.508;1.504;2023-02-26T07:24:42;8.60;;;6.35;;
34765;SDS011;20984;43.508;1.504;2023-02-26T07:27:08;10.23;;;6.13;;
34765;SDS011;20984;43.508;1.504;2023-02-26T07:29:34;9.65;;;6.32;;
34765;SDS011;20984;43.508;1.504;2023-02-26T07:32:00;9.75;;;6.15;;
34765;SDS011;20984;43.508;1.504;2023-02-26T07:34:26;8.32;;;7.47;;
34765;SDS011;20984;43.508;1.504;2023-02-26T07:36:52;8.52;;;6.43;;
34765;SDS011;20984;43.508;1.504;2023-02-26T07:39:17;6.35;;;5.40;;
34765;SDS011;20984;43.508;1.504;2023-02-26T07:41:43;8.52;;;5.72;;
34765;SDS011;20984;43.508;1.504;2023-02-26T07:44:09;15.38;;;6.60;;
34765;SDS011;20984;43.508;1.504;2023-02-26T07:46:35;12.07;;;6.43;;
34765;SDS011;20984;43.508;1.504;2023-02-26T07:49:00;10.77;;;6.20;;
34765;SDS011;20984;43.508;1.504;2023-02-26T07:51:26;6.70;;;6.05;;
34765;SDS011;20984;43.508;1.504;2023-02-26T07:53:52;8.85;;;6.10;;
34765;SDS011;20984;43.508;1.504;2023-02-26T07:56:17;7.35;;;5.35;;
34765;SDS011;20984;43.508;1.504;2023-02-26T07:58:43;8.48;;;6.38;;
34765;SDS011;20984;43.508;1.504;2023-02-26T08:01:09;6.50;;;5.80;;
34765;SDS011;20984;43.508;1.504;2023-02-26T08:03:34;10.07;;;5.78;;
34765;SDS011;20984;43.508;1.504;2023-02-26T08:06:00;9.07;;;6.47;;
34765;SDS011;20984;43.508;1.504;2023-02-26T08:08:27;7.38;;;5.85;;
34765;SDS011;20984;43.508;1.504;2023-02-26T08:10:53;13.95;;;7.55;;
34765;SDS011;20984;43.508;1.504;2023-02-26T08:13:19;16.10;;;8.48;;
34765;SDS011;20984;43.508;1.504;2023-02-26T08:15:46;14.32;;;8.38;;
34765;SDS011;20984;43.508;1.504;2023-02-26T08:18:12;11.05;;;7.10;;
34765;SDS011;20984;43.508;1.504;2023-02-26T08:20:37;11.55;;;6.10;;
34765;SDS011;20984;43.508;1.504;2023-02-26T08:23:03;8.98;;;6.38;;
34765;SDS011;20984;43.508;1.504;2023-02-26T08:25:29;13.18;;;7.38;;
34765;SDS011;20984;43.508;1.504;2023-02-26T08:27:55;12.13;;;6.75;;
34765;SDS011;20984;43.508;1.504;2023-02-26T08:30:22;8.27;;;6.47;;
34765;SDS011;20984;43.508;1.504;2023-02-26T08:32:48;12.27;;;7.60;;
34765;SDS011;20984;43.508;1.504;2023-02-26T08:35:14;6.53;;;5.93;;
34765;SDS011;20984;43.508;1.504;2023-02-26T08:37:40;9.75;;;5.10;;
34765;SDS011;20984;43.508;1.504;2023-02-26T08:40:07;11.68;;;6.43;;
34765;SDS011;20984;43.508;1.504;2023-02-26T08:42:33;9.95;;;7.35;;
34765;SDS011;20984;43.508;1.504;2023-02-26T08:45:00;6.68;;;4.95;;
34765;SDS011;20984;43.508;1.504;2023-02-26T08:47:25;7.50;;;6.03;;
34765;SDS011;20984;43.508;1.504;2023-02-26T08:49:51;10.10;;;6.38;;
34765;SDS011;20984;43.508;1.504;2023-02-26T08:52:17;8.10;;;5.68;;
34765;SDS011;20984;43.508;1.504;2023-02-26T08:54:44;10.65;;;5.43;;
34765;SDS011;20984;43.508;1.504;2023-02-26T08:57:09;7.18;;;6.05;;
34765;SDS011;20984;43.508;1.504;2023-02-26T08:59:35;5.45;;;5.00;;
34765;SDS011;20984;43.508;1.504;2023-02-26T09:02:01;10.25;;;5.75;;
34765;SDS011;20984;43.508;1.504;2023-02-26T09:04:26;8.52;;;6.38;;
34765;SDS011;20984;43.508;1.504;2023-02-26T09:06:52;15.57;;;7.00;;
34765;SDS011;20984;43.508;1.504;2023-02-26T09:09:19;5.85;;;5.20;;
34765;SDS011;20984;43.508;1.504;2023-02-26T09:11:44;8.10;;;5.05;;
34765;SDS011;20984;43.508;1.504;2023-02-26T09:14:10;9.30;;;5.65;;
34765;SDS011;20984;43.508;1.504;2023-02-26T09:16:36;18.02;;;6.47;;
34765;SDS011;20984;43.508;1.504;2023-02-26T09:19:03;10.48;;;6.07;;
34765;SDS011;20984;43.508;1.504;2023-02-26T09:21:30;7.32;;;5.30;;
34765;SDS011;20984;43.508;1.504;2023-02-26T09:23:56;5.13;;;4.57;;
34765;SDS011;20984;43.508;1.504;2023-02-26T09:26:22;11.57;;;4.93;;
34765;SDS011;20984;43.508;1.504;2023-02-26T09:28:47;15.07;;;5.72;;
34765;SDS011;20984;43.508;1.504;2023-02-26T09:31:13;9.55;;;5.40;;
34765;SDS011;20984;43.508;1.504;2023-02-26T09:33:39;9.93;;;5.50;;
34765;SDS011;20984;43.508;1.504;2023-02-26T09:36:05;5.05;;;4.50;;
34765;SDS011;20984;43.508;1.504;2023-02-26T09:38:30;7.47;;;5.68;;
34765;SDS011;20984;43.508;1.504;2023-02-26T09:40:57;11.07;;;5.68;;
34765;SDS011;20984;43.508;1.504;2023-02-26T09:45:53;10.48;;;5.68;;
34765;SDS011;20984;43.508;1.504;2023-02-26T09:48:21;6.28;;;4.85;;
34765;SDS011;20984;43.508;1.504;2023-02-26T09:50:52;8.38;;;5.32;;
34765;SDS011;20984;43.508;1.504;2023-02-26T09:53:21;9.05;;;5.57;;
34765;SDS011;20984;43.508;1.504;2023-02-26T09:55:57;5.82;;;4.75;;
34765;SDS011;20984;43.508;1.504;2023-02-26T09:58:32;8.63;;;5.32;;
34765;SDS011;20984;43.508;1.504;2023-02-26T10:01:09;6.85;;;4.85;;
34765;SDS011;20984;43.508;1.504;2023-02-26T10:07:15;6.93;;;5.10;;
34765;SDS011;20984;43.508;1.504;2023-02-26T10:12:39;9.88;;;5.55;;
34765;SDS011;20984;43.508;1.504;2023-02-26T10:23:42;8.00;;;5.20;;
34765;SDS011;20984;43.508;1.504;2023-02-26T10:26:15;7.68;;;5.60;;
34765;SDS011;20984;43.508;1.504;2023-02-26T10:31:39;5.97;;;5.25;;
34765;SDS011;20984;43.508;1.504;2023-02-26T10:36:46;11.30;;;5.20;;
34765;SDS011;20984;43.508;1.504;2023-02-26T10:42:21;13.20;;;6.05;;
34765;SDS011;20984;43.508;1.504;2023-02-26T10:47:40;9.82;;;5.93;;
34765;SDS011;20984;43.508;1.504;2023-02-26T10:50:12;11.45;;;6.07;;
34765;SDS011;20984;43.508;1.504;2023-02-26T10:52:41;8.60;;;5.80;;
34765;SDS011;20984;43.508;1.504;2023-02-26T10:55:18;7.95;;;6.50;;
34765;SDS011;20984;43.508;1.504;2023-02-26T10:57:59;8.48;;;6.35;;
34765;SDS011;20984;43.508;1.504;2023-02-26T11:00:41;11.43;;;7.32;;
34765;SDS011;20984;43.508;1.504;2023-02-26T11:03:17;10.02;;;5.70;;
34765;SDS011;20984;43.508;1.504;2023-02-26T11:05:53;7.38;;;6.13;;
34765;SDS011;20984;43.508;1.504;2023-02-26T11:08:27;10.63;;;6.85;;
34765;SDS011;20984;43.508;1.504;2023-02-26T11:11:01;19.08;;;6.63;;
34765;SDS011;20984;43.508;1.504;2023-02-26T11:15:56;14.45;;;7.55;;
34765;SDS011;20984;43.508;1.504;2023-02-26T11:18:40;12.15;;;7.05;;
34765;SDS011;20984;43.508;1.504;2023-02-26T11:21:15;10.25;;;7.20;;
34765;SDS011;20984;43.508;1.504;2023-02-26T11:23:57;11.07;;;7.18;;
34765;SDS011;20984;43.508;1.504;2023-02-26T11:26:30;14.15;;;7.28;;
34765;SDS011;20984;43.508;1.504;2023-02-26T11:28:59;10.02;;;7.28;;
34765;SDS011;20984;43.508;1.504;2023-02-26T11:31:25;9.75;;;6.57;;
34765;SDS011;20984;43.508;1.504;2023-02-26T11:34:12;12.80;;;8.05;;
34765;SDS011;20984;43.508;1.504;2023-02-26T11:36:41;10.23;;;6.35;;
34765;SDS011;20984;43.508;1.504;2023-02-26T11:39:16;10.75;;;6.85;;
34765;SDS011;20984;43.508;1.504;2023-02-26T11:41:45;15.80;;;8.30;;
34765;SDS011;20984;43.508;1.504;2023-02-26T11:44:17;10.02;;;6.72;;
34765;SDS011;20984;43.508;1.504;2023-02-26T11:46:54;8.40;;;5.30;;
34765;SDS011;20984;43.508;1.504;2023-02-26T11:49:24;7.40;;;6.05;;
34765;SDS011;20984;43.508;1.504;2023-02-26T11:55:00;6.78;;;5.45;;
34765;SDS011;20984;43.508;1.504;2023-02-26T11:57:29;8.80;;;5.30;;
34765;SDS011;20984;43.508;1.504;2023-02-26T11:59:58;12.98;;;6.93;;
34765;SDS011;20984;43.508;1.504;2023-02-26T12:02:26;9.88;;;6.30;;
34765;SDS011;20984;43.508;1.504;2023-02-26T12:04:59;7.68;;;5.68;;
34765;SDS011;20984;43.508;1.504;2023-02-26T12:07:30;11.02;;;7.40;;
34765;SDS011;20984;43.508;1.504;2023-02-26T12:09:55;11.15;;;6.97;;
34765;SDS011;20984;43.508;1.504;2023-02-26T12:23:58;8.13;;;6.57;;
34765;SDS011;20984;43.508;1.504;2023-02-26T12:32:06;7.72;;;6.22;;
34765;SDS011;20984;43.508;1.504;2023-02-26T12:40:02;7.95;;;6.53;;
34765;SDS011;20984;43.508;1.504;2023-02-26T12:42:50;8.82;;;6.00;;
34765;SDS011;20984;43.508;1.504;2023-02-26T12:53:32;11.70;;;7.78;;
34765;SDS011;20984;43.508;1.504;2023-02-26T13:13:00;8.98;;;6.00;;
34765;SDS011;20984;43.508;1.504;2023-02-26T13:15:52;8.00;;;6.00;;
34765;SDS011;20984;43.508;1.504;2023-02-26T13:21:09;8.93;;;5.07;;
34765;SDS011;20984;43.508;1.504;2023-02-26T13:23:59;9.20;;;6.10;;
34765;SDS011;20984;43.508;1.504;2023-02-26T13:26:29;8.82;;;4.78;;
34765;SDS011;20984;43.508;1.504;2023-02-26T13:28:58;7.50;;;5.40;;
34765;SDS011;20984;43.508;1.504;2023-02-26T13:33:57;8.57;;;6.28;;
34765;SDS011;20984;43.508;1.504;2023-02-26T13:36:27;6.90;;;5.85;;
34765;SDS011;20984;43.508;1.504;2023-02-26T13:44:24;6.82;;;5.82;;
34765;SDS011;20984;43.508;1.504;2023-02-26T13:47:14;10.88;;;6.22;;
34765;SDS011;20984;43.508;1.504;2023-02-26T13:52:29;8.43;;;6.82;;
34765;SDS011;20984;43.508;1.504;2023-02-26T13:54:57;8.73;;;5.90;;
34765;SDS011;20984;43.508;1.504;2023-02-26T13:57:34;7.40;;;6.47;;
34765;SDS011;20984;43.508;1.504;2023-02-26T14:02:57;7.38;;;6.13;;
34765;SDS011;20984;43.508;1.504;2023-02-26T14:14:30;8.25;;;5.90;;
34765;SDS011;20984;43.508;1.504;2023-02-26T14:17:16;7.03;;;4.32;;
34765;SDS011;20984;43.508;1.504;2023-02-26T14:22:32;7.15;;;4.72;;
34765;SDS011;20984;43.508;1.504;2023-02-26T14:27:37;5.43;;;3.10;;
34765;SDS011;20984;43.508;1.504;2023-02-26T14:30:15;5.85;;;3.58;;
34765;SDS011;20984;43.508;1.504;2023-02-26T14:35:28;3.25;;;2.95;;
34765;SDS011;20984;43.508;1.504;2023-02-26T14:38:33;3.80;;;3.20;;
34765;SDS011;20984;43.508;1.504;2023-02-26T14:41:05;4.20;;;2.95;;
34765;SDS011;20984;43.508;1.504;2023-02-26T14:43:44;3.08;;;2.78;;
34765;SDS011;20984;43.508;1.504;2023-02-26T14:46:17;3.30;;;3.00;;
34765;SDS011;20984;43.508;1.504;2023-02-26T14:48:43;3.75;;;3.35;;
34765;SDS011;20984;43.508;1.504;2023-02-26T14:59:43;3.60;;;3.13;;
34765;SDS011;20984;43.508;1.504;2023-02-26T15:23:46;3.83;;;3.05;;
34765;SDS011;20984;43.508;1.504;2023-02-26T15:26:29;6.32;;;3.00;;
34765;SDS011;20984;43.508;1.504;2023-02-26T15:29:02;3.75;;;3.20;;
34765;SDS011;20984;43.508;1.504;2023-02-26T15:31:33;3.35;;;3.00;;
34765;SDS011;20984;43.508;1.504;2023-02-26T15:34:01;5.55;;;3.05;;
34765;SDS011;20984;43.508;1.504;2023-02-26T15:36:28;4.32;;;3.47;;
34765;SDS011;20984;43.508;1.504;2023-02-26T15:38:59;3.28;;;2.97;;
34765;SDS011;20984;43.508;1.504;2023-02-26T15:41:28;4.40;;;3.25;;
34765;SDS011;20984;43.508;1.504;2023-02-26T15:43:56;3.20;;;2.92;;
34765;SDS011;20984;43.508;1.504;2023-02-26T15:46:32;3.28;;;2.97;;
34765;SDS011;20984;43.508;1.504;2023-02-26T15:49:01;3.42;;;2.60;;
34765;SDS011;20984;43.508;1.504;2023-02-26T15:51:32;3.20;;;2.92;;
34765;SDS011;20984;43.508;1.504;2023-02-26T15:53:58;3.97;;;3.13;;
34765;SDS011;20984;43.508;1.504;2023-02-26T15:56:28;3.95;;;3.50;;
34765;SDS011;20984;43.508;1.504;2023-02-26T15:59:10;4.07;;;2.90;;
34765;SDS011;20984;43.508;1.504;2023-02-26T16:01:41;5.20;;;3.38;;
34765;SDS011;20984;43.508;1.504;2023-02-26T16:04:10;4.07;;;3.03;;
34765;SDS011;20984;43.508;1.504;2023-02-26T16:06:40;5.32;;;3.50;;
34765;SDS011;20984;43.508;1.504;2023-02-26T16:09:15;4.05;;;3.10;;
34765;SDS011;20984;43.508;1.504;2023-02-26T16:11:44;5.82;;;3.38;;
34765;SDS011;20984;43.508;1.504;2023-02-26T16:14:16;3.55;;;3.25;;
34765;SDS011;20984;43.508;1.504;2023-02-26T16:16:50;3.80;;;3.40;;
34765;SDS011;20984;43.508;1.504;2023-02-26T16:19:19;4.97;;;3.80;;
34765;SDS011;20984;43.508;1.504;2023-02-26T16:21:53;8.27;;;3.30;;
34765;SDS011;20984;43.508;1.504;2023-02-26T16:24:20;4.07;;;3.67;;
34765;SDS011;20984;43.508;1.504;2023-02-26T16:26:59;6.13;;;4.20;;
34765;SDS011;20984;43.508;1.504;2023-02-26T16:29:31;4.55;;;3.10;;
34765;SDS011;20984;43.508;1.504;2023-02-26T16:32:00;4.10;;;3.70;;
34765;SDS011;20984;43.508;1.504;2023-02-26T16:34:35;10.73;;;4.13;;
34765;SDS011;20984;43.508;1.504;2023-02-26T16:45:15;4.00;;;3.40;;
34765;SDS011;20984;43.508;1.504;2023-02-26T16:47:49;4.80;;;3.83;;
34765;SDS011;20984;43.508;1.504;2023-02-26T16:50:27;6.60;;;3.95;;
34765;SDS011;20984;43.508;1.504;2023-02-26T16:55:33;5.60;;;3.58;;
34765;SDS011;20984;43.508;1.504;2023-02-26T16:58:03;3.75;;;3.38;;
34765;SDS011;20984;43.508;1.504;2023-02-26T17:00:36;3.83;;;3.53;;
34765;SDS011;20984;43.508;1.504;2023-02-26T17:03:06;5.70;;;4.00;;
34765;SDS011;20984;43.508;1.504;2023-02-26T17:08:19;7.38;;;3.88;;
34765;SDS011;20984;43.508;1.504;2023-02-26T17:10:54;4.35;;;3.92;;
34765;SDS011;20984;43.508;1.504;2023-02-26T17:13:30;5.93;;;4.20;;
34765;SDS011;20984;43.508;1.504;2023-02-26T17:15:58;4.03;;;3.63;;
34765;SDS011;20984;43.508;1.504;2023-02-26T17:18:26;4.43;;;4.03;;
34765;SDS011;20984;43.508;1.504;2023-02-26T17:20:53;4.15;;;3.75;;
34765;SDS011;20984;43.508;1.504;2023-02-26T17:23:19;3.55;;;3.25;;
34765;SDS011;20984;43.508;1.504;2023-02-26T17:25:49;5.80;;;3.95;;
34765;SDS011;20984;43.508;1.504;2023-02-26T17:28:24;9.73;;;4.38;;
34765;SDS011;20984;43.508;1.504;2023-02-26T17:30:52;4.63;;;3.80;;
34765;SDS011;20984;43.508;1.504;2023-02-26T17:33:18;4.40;;;3.83;;
34765;SDS011;20984;43.508;1.504;2023-02-26T17:35:45;5.32;;;4.00;;
34765;SDS011;20984;43.508;1.504;2023-02-26T17:38:12;4.00;;;3.67;;
34765;SDS011;20984;43.508;1.504;2023-02-26T17:40:39;3.40;;;3.10;;
34765;SDS011;20984;43.508;1.504;2023-02-26T17:43:05;5.43;;;4.22;;
34765;SDS011;20984;43.508;1.504;2023-02-26T17:45:33;6.40;;;4.53;;
34765;SDS011;20984;43.508;1.504;2023-02-26T17:48:00;5.18;;;4.68;;
34765;SDS011;20984;43.508;1.504;2023-02-26T17:53:08;6.07;;;4.70;;
34765;SDS011;20984;43.508;1.504;2023-02-26T17:55:34;4.45;;;3.80;;
34765;SDS011;20984;43.508;1.504;2023-02-26T17:58:03;5.60;;;4.30;;
34765;SDS011;20984;43.508;1.504;2023-02-26T18:00:29;5.88;;;4.22;;
34765;SDS011;20984;43.508;1.504;2023-02-26T18:02:57;5.53;;;4.95;;
34765;SDS011;20984;43.508;1.504;2023-02-26T18:05:23;5.72;;;4.00;;
34765;SDS011;20984;43.508;1.504;2023-02-26T18:07:52;9.40;;;4.47;;
34765;SDS011;20984;43.508;1.504;2023-02-26T18:10:19;5.63;;;3.90;;
34765;SDS011;20984;43.508;1.504;2023-02-26T18:12:46;4.70;;;4.20;;
34765;SDS011;20984;43.508;1.504;2023-02-26T18:15:13;5.65;;;4.35;;
34765;SDS011;20984;43.508;1.504;2023-02-26T18:17:39;5.90;;;4.78;;
34765;SDS011;20984;43.508;1.504;2023-02-26T18:20:05;3.88;;;3.58;;
34765;SDS011;20984;43.508;1.504;2023-02-26T18:22:37;5.60;;;4.20;;
34765;SDS011;20984;43.508;1.504;2023-02-26T18:25:02;8.25;;;4.63;;
34765;SDS011;20984;43.508;1.504;2023-02-26T18:27:28;4.75;;;3.90;;
34765;SDS011;20984;43.508;1.504;2023-02-26T18:29:54;4.40;;;4.00;;
34765;SDS011;20984;43.508;1.504;2023-02-26T18:32:23;3.97;;;3.67;;
34765;SDS011;20984;43.508;1.504;2023-02-26T18:34:51;5.53;;;4.30;;